Rembert, South Carolina
Current Conditions -  °F | °C
As of 8:58 PM on Monday 24 Nov 2014 (Local Time) from KSSC Reporting Station
Clear Clear  
Wind Chill: 17°   Ceiling: Unl
Heat Index: 17°   Visibility: 10mi
Dew Point: 16°   Wind: 5mph
Humidity: 93%   Direction: 190°S
Pressure: 29.89"   Gusts: NA
Location:  34.1°N, 80.53°W
Report Text: KSSC 250158Z AUTO 19004KT 10SM CLR 17/16 A2989 RMK AO2 DZB0147E0149 SLP122 P0001 T01680156 $
Loading
Personal Weather Stations






























Interactive Weather Map New forecast layout! Learn more

10-Day Weather Forecast

Advertisements
Track Severe Weather on mobile